Weather at Locarno Airport

Public forecast

Using degrees Celsius for public forecast. Weather courtesy of forecast.io.

Current aviation weather report (METAR) for Locarno Airport

Retrieved 2020/11/24 06:20 UTC (0 seconds ago):

LSZL 240620Z 06001KT CAVOK M01/M01 Q1029 RMK BLU

Closest aviation forecast (TAF) to Locarno Airport

Closest forecast is Malpensa International Airport, 32.4 nm (60.1 km) S. Retrieved 2020/11/24 06:00 UTC (5 minutes ago):

TAF LIMC 240500Z 2406/2512 VRB05KT CAVOK